createdAt,value
2022-08-17T00:00:43.678Z,1.75
2022-08-17T00:05:50.348Z,1.70
2022-08-17T00:10:53.480Z,1.80
2022-08-17T00:15:59.784Z,2.28
2022-08-17T00:21:04.698Z,1.95
2022-08-17T00:26:12.704Z,2.00
2022-08-17T00:31:16.031Z,2.13
2022-08-17T00:36:18.298Z,2.20
2022-08-17T00:41:23.867Z,2.30
2022-08-17T00:46:32.240Z,2.40
2022-08-17T00:51:56.036Z,2.65
2022-08-17T00:57:02.546Z,2.28
2022-08-17T01:02:06.273Z,2.50
2022-08-17T01:07:08.502Z,2.35
2022-08-17T01:12:12.138Z,2.67
2022-08-17T01:17:14.113Z,2.88
2022-08-17T01:22:19.045Z,2.65
2022-08-17T01:27:21.444Z,2.35
2022-08-17T01:32:23.558Z,2.30
2022-08-17T01:37:37.757Z,2.50
2022-08-17T01:43:00.180Z,2.00
2022-08-17T01:48:02.041Z,2.63
2022-08-17T01:53:27.532Z,2.50
2022-08-17T01:58:29.479Z,2.80
2022-08-17T02:03:32.098Z,2.58
2022-08-17T02:08:39.268Z,2.55
2022-08-17T02:14:02.396Z,2.42
2022-08-17T02:19:13.376Z,2.70
2022-08-17T02:24:58.812Z,2.80
2022-08-17T02:29:42.096Z,2.67
2022-08-17T02:34:43.965Z,3.03
2022-08-17T02:39:46.125Z,3.63
2022-08-17T02:44:48.105Z,2.67
2022-08-17T02:49:54.358Z,3.00
2022-08-17T02:54:57.793Z,3.40
2022-08-17T02:59:59.456Z,2.97
2022-08-17T03:05:01.143Z,2.80
2022-08-17T03:10:04.142Z,3.50
2022-08-17T03:15:09.484Z,2.90
2022-08-17T03:20:13.147Z,2.80
2022-08-17T03:25:22.720Z,2.67
2022-08-17T03:30:25.949Z,2.60
2022-08-17T03:35:31.434Z,3.10
2022-08-17T03:40:55.920Z,2.55
2022-08-17T03:46:34.698Z,3.03
2022-08-17T03:51:53.869Z,2.40
2022-08-17T03:57:05.940Z,3.00
2022-08-17T04:02:21.568Z,2.72
2022-08-17T04:07:28.482Z,2.70
2022-08-17T04:12:43.877Z,3.40
2022-08-17T04:17:46.003Z,2.50
2022-08-17T04:23:02.753Z,3.17
2022-08-17T04:28:07.602Z,3.13
2022-08-17T04:33:21.892Z,3.40
2022-08-17T04:38:26.222Z,3.53
2022-08-17T04:43:29.235Z,3.50
2022-08-17T04:48:37.061Z,3.60
2022-08-17T04:53:44.985Z,3.53
2022-08-17T04:58:50.153Z,3.33
2022-08-17T05:03:54.574Z,3.20
2022-08-17T05:08:57.746Z,4.00
2022-08-17T05:13:59.586Z,3.55
2022-08-17T05:19:02.625Z,3.47
2022-08-17T05:24:12.855Z,3.30
2022-08-17T05:29:35.093Z,3.80
2022-08-17T05:34:37.789Z,3.50
2022-08-17T05:39:40.022Z,3.47
2022-08-17T05:44:41.805Z,2.90
2022-08-17T05:49:43.840Z,2.30
2022-08-17T05:55:05.137Z,2.80
2022-08-17T06:00:07.927Z,2.72
2022-08-17T06:05:32.964Z,2.28
2022-08-17T06:10:43.568Z,2.30
2022-08-17T06:16:01.870Z,2.47
2022-08-17T06:21:07.205Z,2.20
2022-08-17T06:26:27.602Z,2.10
2022-08-17T06:31:40.781Z,2.65
2022-08-17T06:36:45.529Z,2.45
2022-08-17T06:42:06.780Z,2.53
2022-08-17T06:47:28.839Z,2.25
2022-08-17T06:52:47.137Z,2.38
2022-08-17T06:57:53.712Z,1.88
2022-08-17T07:03:06.689Z,1.88
2022-08-17T07:08:20.082Z,1.98
2022-08-17T07:13:21.760Z,2.40
2022-08-17T07:18:26.614Z,2.60
2022-08-17T07:23:47.406Z,2.20
2022-08-17T07:28:49.917Z,2.10
2022-08-17T07:34:14.423Z,2.28
2022-08-17T07:39:26.959Z,2.40
2022-08-17T07:44:28.914Z,2.38
2022-08-17T07:49:31.129Z,2.60
2022-08-17T07:54:37.114Z,2.17
2022-08-17T07:59:43.340Z,2.65
2022-08-17T08:05:06.755Z,2.10
2022-08-17T08:10:38.885Z,2.42
2022-08-17T08:15:54.754Z,2.03
2022-08-17T08:21:07.245Z,3.22
2022-08-17T08:26:37.228Z,2.22
2022-08-17T08:32:18.261Z,2.03
2022-08-17T08:37:34.741Z,2.60
2022-08-17T08:42:48.861Z,3.17
2022-08-17T08:47:53.805Z,2.53
2022-08-17T08:53:07.861Z,2.90
2022-08-17T08:58:32.165Z,2.70
2022-08-17T09:04:20.002Z,2.67
2022-08-17T09:09:49.612Z,2.70
2022-08-17T09:15:03.182Z,2.95
2022-08-17T09:20:27.557Z,3.22
2022-08-17T09:25:34.277Z,3.42
2022-08-17T09:30:49.885Z,3.92
2022-08-17T09:35:59.513Z,3.42
2022-08-17T09:41:13.080Z,2.70
2022-08-17T09:46:18.266Z,2.35
2022-08-17T09:51:55.239Z,2.10
2022-08-17T09:57:29.757Z,6.90
2022-08-17T10:02:44.514Z,1.77
2022-08-17T10:08:02.464Z,1.48
2022-08-17T10:13:28.289Z,1.77
2022-08-17T10:18:37.667Z,1.65
2022-08-17T10:23:58.650Z,1.60
2022-08-17T10:29:09.493Z,1.85
2022-08-17T10:34:19.853Z,2.30
2022-08-17T10:39:35.241Z,1.70
2022-08-17T10:45:20.032Z,1.58
2022-08-17T10:50:47.654Z,1.60
2022-08-17T10:56:14.605Z,1.85
2022-08-17T11:01:17.557Z,1.90
2022-08-17T11:06:42.525Z,1.52
2022-08-17T11:12:00.905Z,1.45
2022-08-17T11:17:14.647Z,1.50
2022-08-17T11:22:34.238Z,1.88
2022-08-17T11:27:36.592Z,1.52
2022-08-17T11:32:54.560Z,1.70
2022-08-17T11:38:16.346Z,2.25
2022-08-17T11:43:55.150Z,1.70
2022-08-17T11:49:29.024Z,1.48
2022-08-17T11:54:33.660Z,1.50
2022-08-17T11:59:45.948Z,1.45
2022-08-17T12:05:21.143Z,1.70
2022-08-17T12:10:31.966Z,1.77
2022-08-17T12:15:42.545Z,1.20
2022-08-17T12:20:56.103Z,1.85
2022-08-17T12:26:11.946Z,1.38
2022-08-17T12:31:24.458Z,1.90
2022-08-17T12:36:28.404Z,2.30
2022-08-17T12:41:42.546Z,1.80
2022-08-17T12:46:46.899Z,1.35
2022-08-17T12:51:50.214Z,1.60
2022-08-17T12:56:51.982Z,1.45
2022-08-17T13:01:53.888Z,1.50
2022-08-17T13:06:59.852Z,1.75
2022-08-17T13:12:02.156Z,1.50
2022-08-17T13:17:08.578Z,1.67
2022-08-17T13:22:12.940Z,1.00
2022-08-17T13:27:15.351Z,1.58
2022-08-17T13:32:23.042Z,2.00
2022-08-17T13:37:29.626Z,1.67
2022-08-17T13:42:52.282Z,1.42
2022-08-17T13:48:11.892Z,1.17
2022-08-17T13:53:40.391Z,1.70
2022-08-17T13:58:55.255Z,1.45
2022-08-17T14:03:58.714Z,1.25
2022-08-17T14:09:04.801Z,1.42
2022-08-17T14:14:06.684Z,1.65
2022-08-17T14:19:11.668Z,1.15
2022-08-17T14:24:41.309Z,1.20
2022-08-17T14:29:47.681Z,1.40
2022-08-17T14:34:50.390Z,1.45
2022-08-17T14:39:57.338Z,1.08
2022-08-17T14:45:00.203Z,1.33
2022-08-17T14:50:04.308Z,1.10
2022-08-17T14:55:13.102Z,1.50
2022-08-17T15:00:16.871Z,1.27
2022-08-17T15:05:19.295Z,1.13
2022-08-17T15:10:21.408Z,1.20
2022-08-17T15:15:23.803Z,1.73
2022-08-17T15:20:29.584Z,1.50
2022-08-17T15:25:32.983Z,1.40
2022-08-17T15:30:35.821Z,1.30
2022-08-17T15:35:37.464Z,1.17
2022-08-17T15:40:50.653Z,1.48
2022-08-17T15:46:12.391Z,1.30
2022-08-17T15:51:17.626Z,1.60
2022-08-17T15:56:19.948Z,1.30
2022-08-17T16:03:13.586Z,1.20
2022-08-17T16:06:45.783Z,1.10
2022-08-17T16:11:53.718Z,1.20
2022-08-17T16:16:59.135Z,1.70
2022-08-17T16:22:01.030Z,1.25
2022-08-17T16:27:04.137Z,1.60
2022-08-17T16:32:21.822Z,1.20
2022-08-17T16:37:34.229Z,1.40
2022-08-17T16:42:37.990Z,1.58
2022-08-17T16:47:40.333Z,1.10
2022-08-17T16:52:42.360Z,1.60
2022-08-17T16:57:47.604Z,1.27
2022-08-17T17:08:03.352Z,1.30
2022-08-17T17:13:17.111Z,1.23
2022-08-17T17:18:23.018Z,1.20
2022-08-17T17:23:27.705Z,1.30
2022-08-17T17:28:29.281Z,1.17
2022-08-17T17:34:00.386Z,1.50
2022-08-17T17:39:23.218Z,2.95
2022-08-17T17:44:32.928Z,1.83
2022-08-17T17:49:38.436Z,1.80
2022-08-17T17:54:52.293Z,1.58
2022-08-17T18:00:08.807Z,2.45
2022-08-17T18:05:26.988Z,2.00
2022-08-17T18:10:45.085Z,1.98
2022-08-17T18:15:54.190Z,2.75
2022-08-17T18:21:05.136Z,5.85
2022-08-17T18:26:06.905Z,5.55
2022-08-17T18:31:19.150Z,3.78
2022-08-17T18:36:37.411Z,2.70
2022-08-17T18:41:45.245Z,2.00
2022-08-17T18:46:46.926Z,2.70
2022-08-17T18:51:48.559Z,2.10
2022-08-17T18:56:50.189Z,4.38
2022-08-17T19:02:27.363Z,3.63
2022-08-17T19:07:39.064Z,2.60
2022-08-17T19:12:46.168Z,2.30
2022-08-17T19:17:55.151Z,2.10
2022-08-17T19:23:10.100Z,2.63
2022-08-17T19:28:34.790Z,2.55
2022-08-17T19:33:37.545Z,2.33
2022-08-17T19:39:00.842Z,2.65
2022-08-17T19:44:34.715Z,2.22
2022-08-17T19:50:14.860Z,2.08
2022-08-17T19:55:32.033Z,2.50
2022-08-17T20:00:42.024Z,2.20
2022-08-17T20:11:24.981Z,2.30
2022-08-17T20:16:27.065Z,2.13
2022-08-17T20:21:38.293Z,3.25
2022-08-17T20:26:59.838Z,1.77
2022-08-17T20:32:01.964Z,1.95
2022-08-17T20:37:11.012Z,2.17
2022-08-17T20:42:15.523Z,2.08
2022-08-17T20:47:26.932Z,2.22
2022-08-17T20:52:50.872Z,2.58
2022-08-17T20:57:52.753Z,2.05
2022-08-17T21:03:26.715Z,2.28
2022-08-17T21:08:53.147Z,2.78
2022-08-17T21:14:23.296Z,1.80
2022-08-17T21:20:07.635Z,2.47
2022-08-17T21:25:20.693Z,2.10
2022-08-17T21:30:46.701Z,2.20
2022-08-17T21:35:50.772Z,2.08
2022-08-17T21:40:53.459Z,2.08
2022-08-17T21:46:03.735Z,2.10
2022-08-17T21:51:13.918Z,2.25
2022-08-17T21:56:30.292Z,2.20
2022-08-17T22:01:39.041Z,2.15
2022-08-17T22:06:57.286Z,2.63
2022-08-17T22:12:12.335Z,2.50
2022-08-17T22:17:26.113Z,2.30
2022-08-17T22:23:18.099Z,2.10
2022-08-17T22:28:56.489Z,2.53
2022-08-17T22:33:59.766Z,2.40
2022-08-17T22:39:10.580Z,2.60
2022-08-17T22:44:29.619Z,2.85
2022-08-17T22:50:02.221Z,2.50
2022-08-17T22:55:35.361Z,3.38
2022-08-17T23:00:37.447Z,3.78
2022-08-17T23:05:43.485Z,3.72
2022-08-17T23:10:46.562Z,4.03
2022-08-17T23:15:51.008Z,3.45
2022-08-17T23:20:53.529Z,3.70
2022-08-17T23:25:55.392Z,3.45
2022-08-17T23:30:57.035Z,3.53
2022-08-17T23:35:58.852Z,3.13
2022-08-17T23:41:05.882Z,3.03
2022-08-17T23:46:07.522Z,3.67
2022-08-17T23:51:17.444Z,4.05
2022-08-17T23:56:25.966Z,4.55
